sensor_id;sensor_type;location;lat;lon;timestamp;temperature;humidity
3418;DHT22;68007;51.312;12.372;2023-03-01T00:01:03;2.60;85.80
3418;DHT22;68007;51.312;12.372;2023-03-01T00:03:33;2.60;85.80
3418;DHT22;68007;51.312;12.372;2023-03-01T00:06:01;2.60;85.60
3418;DHT22;68007;51.312;12.372;2023-03-01T00:08:29;2.60;85.50
3418;DHT22;68007;51.312;12.372;2023-03-01T00:11:03;2.60;85.60
3418;DHT22;68007;51.312;12.372;2023-03-01T00:13:31;2.60;85.50
3418;DHT22;68007;51.312;12.372;2023-03-01T00:16:01;2.60;85.70
3418;DHT22;68007;51.312;12.372;2023-03-01T00:18:28;2.60;85.60
3418;DHT22;68007;51.312;12.372;2023-03-01T00:20:56;2.50;85.70
3418;DHT22;68007;51.312;12.372;2023-03-01T00:23:24;2.50;85.50
3418;DHT22;68007;51.312;12.372;2023-03-01T00:25:51;2.50;85.70
3418;DHT22;68007;51.312;12.372;2023-03-01T00:28:21;2.50;85.70
3418;DHT22;68007;51.312;12.372;2023-03-01T00:30:48;2.50;85.70
3418;DHT22;68007;51.312;12.372;2023-03-01T00:33:16;2.50;86.40
3418;DHT22;68007;51.312;12.372;2023-03-01T00:35:43;2.50;85.80
3418;DHT22;68007;51.312;12.372;2023-03-01T00:38:11;2.50;85.60
3418;DHT22;68007;51.312;12.372;2023-03-01T00:40:38;2.40;85.60
3418;DHT22;68007;51.312;12.372;2023-03-01T00:43:06;2.50;85.60
3418;DHT22;68007;51.312;12.372;2023-03-01T00:45:35;2.40;85.60
3418;DHT22;68007;51.312;12.372;2023-03-01T00:48:03;2.40;85.70
3418;DHT22;68007;51.312;12.372;2023-03-01T00:50:34;2.40;85.90
3418;DHT22;68007;51.312;12.372;2023-03-01T00:53:01;2.40;85.90
3418;DHT22;68007;51.312;12.372;2023-03-01T00:55:29;2.30;86.00
3418;DHT22;68007;51.312;12.372;2023-03-01T00:57:56;2.30;86.00
3418;DHT22;68007;51.312;12.372;2023-03-01T01:00:24;2.30;85.90
3418;DHT22;68007;51.312;12.372;2023-03-01T01:02:55;2.30;85.90
3418;DHT22;68007;51.312;12.372;2023-03-01T01:05:22;2.30;85.80
3418;DHT22;68007;51.312;12.372;2023-03-01T01:07:50;2.30;85.90
3418;DHT22;68007;51.312;12.372;2023-03-01T01:10:18;2.30;86.50
3418;DHT22;68007;51.312;12.372;2023-03-01T01:12:46;2.20;85.80
3418;DHT22;68007;51.312;12.372;2023-03-01T01:15:14;2.20;85.90
3418;DHT22;68007;51.312;12.372;2023-03-01T01:17:43;2.20;86.00
3418;DHT22;68007;51.312;12.372;2023-03-01T01:20:12;2.20;86.10
3418;DHT22;68007;51.312;12.372;2023-03-01T01:22:40;2.20;86.10
3418;DHT22;68007;51.312;12.372;2023-03-01T01:25:08;2.10;86.10
3418;DHT22;68007;51.312;12.372;2023-03-01T01:27:36;2.10;86.20
3418;DHT22;68007;51.312;12.372;2023-03-01T01:30:05;2.10;86.30
3418;DHT22;68007;51.312;12.372;2023-03-01T01:32:32;2.10;86.20
3418;DHT22;68007;51.312;12.372;2023-03-01T01:35:00;2.10;86.30
3418;DHT22;68007;51.312;12.372;2023-03-01T01:37:29;2.10;86.40
3418;DHT22;68007;51.312;12.372;2023-03-01T01:39:58;2.00;86.10
3418;DHT22;68007;51.312;12.372;2023-03-01T01:42:26;2.00;86.20
3418;DHT22;68007;51.312;12.372;2023-03-01T01:45:24;2.00;86.50
3418;DHT22;68007;51.312;12.372;2023-03-01T01:47:53;2.00;86.50
3418;DHT22;68007;51.312;12.372;2023-03-01T01:50:22;2.00;86.50
3418;DHT22;68007;51.312;12.372;2023-03-01T01:52:52;1.90;87.00
3418;DHT22;68007;51.312;12.372;2023-03-01T01:55:24;2.00;86.60
3418;DHT22;68007;51.312;12.372;2023-03-01T01:57:55;1.90;86.60
3418;DHT22;68007;51.312;12.372;2023-03-01T02:00:25;1.90;86.70
3418;DHT22;68007;51.312;12.372;2023-03-01T02:02:57;1.90;86.70
3418;DHT22;68007;51.312;12.372;2023-03-01T02:05:29;1.90;86.80
3418;DHT22;68007;51.312;12.372;2023-03-01T02:08:01;1.90;86.90
3418;DHT22;68007;51.312;12.372;2023-03-01T02:10:29;1.80;86.90
3418;DHT22;68007;51.312;12.372;2023-03-01T02:13:00;1.80;87.40
3418;DHT22;68007;51.312;12.372;2023-03-01T02:15:31;1.80;86.80
3418;DHT22;68007;51.312;12.372;2023-03-01T02:17:59;1.80;86.90
3418;DHT22;68007;51.312;12.372;2023-03-01T02:20:33;1.80;86.90
3418;DHT22;68007;51.312;12.372;2023-03-01T02:23:03;1.70;87.00
3418;DHT22;68007;51.312;12.372;2023-03-01T02:25:38;1.70;87.20
3418;DHT22;68007;51.312;12.372;2023-03-01T02:28:20;1.70;87.20
3418;DHT22;68007;51.312;12.372;2023-03-01T02:30:49;1.70;87.20
3418;DHT22;68007;51.312;12.372;2023-03-01T02:33:36;1.60;87.30
3418;DHT22;68007;51.312;12.372;2023-03-01T02:36:07;1.60;87.30
3418;DHT22;68007;51.312;12.372;2023-03-01T02:38:36;1.70;87.40
3418;DHT22;68007;51.312;12.372;2023-03-01T02:41:05;1.60;87.50
3418;DHT22;68007;51.312;12.372;2023-03-01T02:43:35;1.60;87.40
3418;DHT22;68007;51.312;12.372;2023-03-01T02:46:12;1.70;87.40
3418;DHT22;68007;51.312;12.372;2023-03-01T02:48:42;1.60;87.40
3418;DHT22;68007;51.312;12.372;2023-03-01T02:51:18;1.60;87.40
3418;DHT22;68007;51.312;12.372;2023-03-01T02:54:04;1.60;88.10
3418;DHT22;68007;51.312;12.372;2023-03-01T02:56:35;1.60;87.70
3418;DHT22;68007;51.312;12.372;2023-03-01T02:59:05;1.50;87.70
3418;DHT22;68007;51.312;12.372;2023-03-01T03:01:33;1.50;87.70
3418;DHT22;68007;51.312;12.372;2023-03-01T03:04:04;1.50;87.80
3418;DHT22;68007;51.312;12.372;2023-03-01T03:06:32;1.50;87.80
3418;DHT22;68007;51.312;12.372;2023-03-01T03:09:01;1.50;87.80
3418;DHT22;68007;51.312;12.372;2023-03-01T03:11:28;1.50;87.80
3418;DHT22;68007;51.312;12.372;2023-03-01T03:13:56;1.50;87.80
3418;DHT22;68007;51.312;12.372;2023-03-01T03:16:25;1.50;87.80
3418;DHT22;68007;51.312;12.372;2023-03-01T03:18:53;1.50;87.90
3418;DHT22;68007;51.312;12.372;2023-03-01T03:21:20;1.50;87.90
3418;DHT22;68007;51.312;12.372;2023-03-01T03:23:48;1.50;88.00
3418;DHT22;68007;51.312;12.372;2023-03-01T03:26:15;1.50;87.90
3418;DHT22;68007;51.312;12.372;2023-03-01T03:28:43;1.40;88.00
3418;DHT22;68007;51.312;12.372;2023-03-01T03:31:10;1.40;88.60
3418;DHT22;68007;51.312;12.372;2023-03-01T03:33:39;1.40;88.20
3418;DHT22;68007;51.312;12.372;2023-03-01T03:36:07;1.40;88.30
3418;DHT22;68007;51.312;12.372;2023-03-01T03:38:39;1.40;88.30
3418;DHT22;68007;51.312;12.372;2023-03-01T03:41:08;1.40;88.90
3418;DHT22;68007;51.312;12.372;2023-03-01T03:43:37;1.40;88.30
3418;DHT22;68007;51.312;12.372;2023-03-01T03:46:05;1.40;88.30
3418;DHT22;68007;51.312;12.372;2023-03-01T03:48:33;1.30;88.40
3418;DHT22;68007;51.312;12.372;2023-03-01T03:51:02;1.30;88.60
3418;DHT22;68007;51.312;12.372;2023-03-01T03:53:31;1.30;88.70
3418;DHT22;68007;51.312;12.372;2023-03-01T03:55:59;1.20;88.60
3418;DHT22;68007;51.312;12.372;2023-03-01T03:58:27;1.20;88.70
3418;DHT22;68007;51.312;12.372;2023-03-01T04:00:56;1.20;88.70
3418;DHT22;68007;51.312;12.372;2023-03-01T04:03:25;1.20;88.90
3418;DHT22;68007;51.312;12.372;2023-03-01T04:05:53;1.20;88.90
3418;DHT22;68007;51.312;12.372;2023-03-01T04:08:23;1.20;89.10
3418;DHT22;68007;51.312;12.372;2023-03-01T04:10:52;1.10;89.10
3418;DHT22;68007;51.312;12.372;2023-03-01T04:13:22;1.10;89.70
3418;DHT22;68007;51.312;12.372;2023-03-01T04:15:52;1.10;89.20
3418;DHT22;68007;51.312;12.372;2023-03-01T04:18:22;1.20;89.30
3418;DHT22;68007;51.312;12.372;2023-03-01T04:20:52;1.10;89.30
3418;DHT22;68007;51.312;12.372;2023-03-01T04:23:22;1.10;89.30
3418;DHT22;68007;51.312;12.372;2023-03-01T04:25:51;1.10;89.40
3418;DHT22;68007;51.312;12.372;2023-03-01T04:28:21;1.10;89.50
3418;DHT22;68007;51.312;12.372;2023-03-01T04:30:51;1.10;90.00
3418;DHT22;68007;51.312;12.372;2023-03-01T04:33:18;1.10;89.50
3418;DHT22;68007;51.312;12.372;2023-03-01T04:35:47;1.10;89.70
3418;DHT22;68007;51.312;12.372;2023-03-01T04:38:16;1.10;89.80
3418;DHT22;68007;51.312;12.372;2023-03-01T04:40:44;1.00;89.90
3418;DHT22;68007;51.312;12.372;2023-03-01T04:43:12;1.00;90.00
3418;DHT22;68007;51.312;12.372;2023-03-01T04:45:41;1.00;90.00
3418;DHT22;68007;51.312;12.372;2023-03-01T04:48:09;1.00;90.10
3418;DHT22;68007;51.312;12.372;2023-03-01T04:50:36;1.00;90.00
3418;DHT22;68007;51.312;12.372;2023-03-01T04:53:04;1.00;90.00
3418;DHT22;68007;51.312;12.372;2023-03-01T04:55:31;1.00;90.00
3418;DHT22;68007;51.312;12.372;2023-03-01T04:58:00;1.00;90.00
3418;DHT22;68007;51.312;12.372;2023-03-01T05:00:28;1.00;90.00
3418;DHT22;68007;51.312;12.372;2023-03-01T05:02:57;1.00;90.00
3418;DHT22;68007;51.312;12.372;2023-03-01T05:05:26;1.00;90.00
3418;DHT22;68007;51.312;12.372;2023-03-01T05:07:56;0.90;90.00
3418;DHT22;68007;51.312;12.372;2023-03-01T05:10:24;1.00;90.00
3418;DHT22;68007;51.312;12.372;2023-03-01T05:12:52;0.90;90.00
3418;DHT22;68007;51.312;12.372;2023-03-01T05:15:21;0.90;90.10
3418;DHT22;68007;51.312;12.372;2023-03-01T05:17:52;0.80;90.10
3418;DHT22;68007;51.312;12.372;2023-03-01T05:20:20;0.90;90.10
3418;DHT22;68007;51.312;12.372;2023-03-01T05:22:50;0.80;90.10
3418;DHT22;68007;51.312;12.372;2023-03-01T05:25:18;0.80;90.10
3418;DHT22;68007;51.312;12.372;2023-03-01T05:27:45;0.80;90.20
3418;DHT22;68007;51.312;12.372;2023-03-01T05:30:13;0.80;90.30
3418;DHT22;68007;51.312;12.372;2023-03-01T05:32:44;0.70;90.30
3418;DHT22;68007;51.312;12.372;2023-03-01T05:35:14;0.70;90.40
3418;DHT22;68007;51.312;12.372;2023-03-01T05:37:42;0.70;90.50
3418;DHT22;68007;51.312;12.372;2023-03-01T05:40:12;0.70;90.50
3418;DHT22;68007;51.312;12.372;2023-03-01T05:42:43;0.70;90.50
3418;DHT22;68007;51.312;12.372;2023-03-01T05:45:11;0.70;90.40
3418;DHT22;68007;51.312;12.372;2023-03-01T05:47:39;0.70;90.40
3418;DHT22;68007;51.312;12.372;2023-03-01T05:50:14;0.70;90.40
3418;DHT22;68007;51.312;12.372;2023-03-01T05:52:46;0.70;90.40
3418;DHT22;68007;51.312;12.372;2023-03-01T05:55:15;0.60;90.50
3418;DHT22;68007;51.312;12.372;2023-03-01T05:57:43;0.60;90.50
3418;DHT22;68007;51.312;12.372;2023-03-01T06:00:12;0.60;90.50
3418;DHT22;68007;51.312;12.372;2023-03-01T06:02:40;0.60;90.60
3418;DHT22;68007;51.312;12.372;2023-03-01T06:05:09;0.60;90.60
3418;DHT22;68007;51.312;12.372;2023-03-01T06:07:39;0.60;90.60
3418;DHT22;68007;51.312;12.372;2023-03-01T06:10:08;0.60;90.60
3418;DHT22;68007;51.312;12.372;2023-03-01T06:12:37;0.60;90.60
3418;DHT22;68007;51.312;12.372;2023-03-01T06:15:06;0.50;90.60
3418;DHT22;68007;51.312;12.372;2023-03-01T06:17:37;0.60;90.70
3418;DHT22;68007;51.312;12.372;2023-03-01T06:20:07;0.50;90.60
3418;DHT22;68007;51.312;12.372;2023-03-01T06:22:35;0.50;90.70
3418;DHT22;68007;51.312;12.372;2023-03-01T06:25:06;0.50;90.70
3418;DHT22;68007;51.312;12.372;2023-03-01T06:27:34;0.50;90.80
3418;DHT22;68007;51.312;12.372;2023-03-01T06:30:02;0.50;90.80
3418;DHT22;68007;51.312;12.372;2023-03-01T06:32:29;0.50;90.80
3418;DHT22;68007;51.312;12.372;2023-03-01T06:34:57;0.50;90.80
3418;DHT22;68007;51.312;12.372;2023-03-01T06:37:25;0.50;90.80
3418;DHT22;68007;51.312;12.372;2023-03-01T06:39:53;0.50;91.00
3418;DHT22;68007;51.312;12.372;2023-03-01T06:42:22;0.50;90.90
3418;DHT22;68007;51.312;12.372;2023-03-01T06:44:49;0.50;91.00
3418;DHT22;68007;51.312;12.372;2023-03-01T06:47:17;0.50;91.00
3418;DHT22;68007;51.312;12.372;2023-03-01T06:49:44;0.50;90.90
3418;DHT22;68007;51.312;12.372;2023-03-01T06:52:12;0.50;90.90
3418;DHT22;68007;51.312;12.372;2023-03-01T06:54:39;0.50;91.00
3418;DHT22;68007;51.312;12.372;2023-03-01T06:57:07;0.50;91.10
3418;DHT22;68007;51.312;12.372;2023-03-01T06:59:36;0.50;91.40
3418;DHT22;68007;51.312;12.372;2023-03-01T07:02:03;0.60;91.30
3418;DHT22;68007;51.312;12.372;2023-03-01T07:04:31;0.50;91.20
3418;DHT22;68007;51.312;12.372;2023-03-01T07:06:58;0.50;91.10
3418;DHT22;68007;51.312;12.372;2023-03-01T07:09:26;0.60;91.20
3418;DHT22;68007;51.312;12.372;2023-03-01T07:11:53;0.60;91.10
3418;DHT22;68007;51.312;12.372;2023-03-01T07:14:21;0.50;91.00
3418;DHT22;68007;51.312;12.372;2023-03-01T07:16:52;0.60;91.10
3418;DHT22;68007;51.312;12.372;2023-03-01T07:19:20;0.50;91.20
3418;DHT22;68007;51.312;12.372;2023-03-01T07:21:47;0.60;91.20
3418;DHT22;68007;51.312;12.372;2023-03-01T07:24:15;0.60;91.30
3418;DHT22;68007;51.312;12.372;2023-03-01T07:26:43;0.60;91.20
3418;DHT22;68007;51.312;12.372;2023-03-01T07:29:10;0.60;91.30
3418;DHT22;68007;51.312;12.372;2023-03-01T07:31:38;0.60;91.30
3418;DHT22;68007;51.312;12.372;2023-03-01T07:34:07;0.70;91.40
3418;DHT22;68007;51.312;12.372;2023-03-01T07:36:34;0.60;91.20
3418;DHT22;68007;51.312;12.372;2023-03-01T07:39:02;0.70;91.20
3418;DHT22;68007;51.312;12.372;2023-03-01T07:41:30;0.70;91.30
3418;DHT22;68007;51.312;12.372;2023-03-01T07:43:57;0.70;91.30
3418;DHT22;68007;51.312;12.372;2023-03-01T07:46:25;0.70;91.20
3418;DHT22;68007;51.312;12.372;2023-03-01T07:48:52;0.70;91.10
3418;DHT22;68007;51.312;12.372;2023-03-01T07:51:21;0.70;91.30
3418;DHT22;68007;51.312;12.372;2023-03-01T07:53:49;0.80;91.40
3418;DHT22;68007;51.312;12.372;2023-03-01T07:56:16;0.80;91.40
3418;DHT22;68007;51.312;12.372;2023-03-01T07:58:45;0.80;91.60
3418;DHT22;68007;51.312;12.372;2023-03-01T08:01:14;0.90;91.50
3418;DHT22;68007;51.312;12.372;2023-03-01T08:03:42;0.90;91.50
3418;DHT22;68007;51.312;12.372;2023-03-01T08:06:12;1.00;91.50
3418;DHT22;68007;51.312;12.372;2023-03-01T08:08:41;1.00;91.40
3418;DHT22;68007;51.312;12.372;2023-03-01T08:11:11;1.00;91.40
3418;DHT22;68007;51.312;12.372;2023-03-01T08:13:39;1.00;91.20
3418;DHT22;68007;51.312;12.372;2023-03-01T08:16:07;1.10;91.20
3418;DHT22;68007;51.312;12.372;2023-03-01T08:18:35;1.10;91.10
3418;DHT22;68007;51.312;12.372;2023-03-01T08:21:03;1.20;91.30
3418;DHT22;68007;51.312;12.372;2023-03-01T08:23:31;1.20;91.30
3418;DHT22;68007;51.312;12.372;2023-03-01T08:26:08;1.20;91.40
3418;DHT22;68007;51.312;12.372;2023-03-01T08:28:36;1.20;91.30
3418;DHT22;68007;51.312;12.372;2023-03-01T08:31:13;1.30;91.20
3418;DHT22;68007;51.312;12.372;2023-03-01T08:33:41;1.30;91.30
3418;DHT22;68007;51.312;12.372;2023-03-01T08:36:09;1.30;91.30
3418;DHT22;68007;51.312;12.372;2023-03-01T08:38:37;1.30;91.40
3418;DHT22;68007;51.312;12.372;2023-03-01T08:41:06;1.40;91.20
3418;DHT22;68007;51.312;12.372;2023-03-01T08:43:34;1.40;91.30
3418;DHT22;68007;51.312;12.372;2023-03-01T08:46:01;1.40;91.20
3418;DHT22;68007;51.312;12.372;2023-03-01T08:48:29;1.50;91.20
3418;DHT22;68007;51.312;12.372;2023-03-01T08:50:57;1.50;91.20
3418;DHT22;68007;51.312;12.372;2023-03-01T08:53:24;1.50;91.10
3418;DHT22;68007;51.312;12.372;2023-03-01T08:55:52;1.60;91.30
3418;DHT22;68007;51.312;12.372;2023-03-01T08:58:21;1.60;90.90
3418;DHT22;68007;51.312;12.372;2023-03-01T09:00:48;1.70;91.10
3418;DHT22;68007;51.312;12.372;2023-03-01T09:03:16;1.70;91.30
3418;DHT22;68007;51.312;12.372;2023-03-01T09:05:43;1.70;91.10
3418;DHT22;68007;51.312;12.372;2023-03-01T09:08:12;1.80;91.10
3418;DHT22;68007;51.312;12.372;2023-03-01T09:10:39;1.80;91.50
3418;DHT22;68007;51.312;12.372;2023-03-01T09:13:07;1.90;91.00
3418;DHT22;68007;51.312;12.372;2023-03-01T09:15:36;2.00;90.80
3418;DHT22;68007;51.312;12.372;2023-03-01T09:18:04;2.00;90.60
3418;DHT22;68007;51.312;12.372;2023-03-01T09:20:32;2.00;90.70
3418;DHT22;68007;51.312;12.372;2023-03-01T09:23:00;2.10;90.50
3418;DHT22;68007;51.312;12.372;2023-03-01T09:25:27;2.10;90.80
3418;DHT22;68007;51.312;12.372;2023-03-01T09:27:55;2.20;90.80
3418;DHT22;68007;51.312;12.372;2023-03-01T09:30:24;2.20;90.70
3418;DHT22;68007;51.312;12.372;2023-03-01T09:32:53;2.30;90.70
3418;DHT22;68007;51.312;12.372;2023-03-01T09:35:21;2.30;90.60
3418;DHT22;68007;51.312;12.372;2023-03-01T09:37:49;2.40;90.50
3418;DHT22;68007;51.312;12.372;2023-03-01T09:40:19;2.40;90.70
3418;DHT22;68007;51.312;12.372;2023-03-01T09:42:53;2.50;89.90
3418;DHT22;68007;51.312;12.372;2023-03-01T09:45:32;2.50;90.10
3418;DHT22;68007;51.312;12.372;2023-03-01T09:48:05;2.50;90.30
3418;DHT22;68007;51.312;12.372;2023-03-01T09:50:35;2.60;90.00
3418;DHT22;68007;51.312;12.372;2023-03-01T09:53:09;2.70;90.20
3418;DHT22;68007;51.312;12.372;2023-03-01T09:55:39;2.70;90.00
3418;DHT22;68007;51.312;12.372;2023-03-01T09:58:30;2.70;89.90
3418;DHT22;68007;51.312;12.372;2023-03-01T10:01:03;2.80;89.60
3418;DHT22;68007;51.312;12.372;2023-03-01T10:03:43;2.90;90.10
3418;DHT22;68007;51.312;12.372;2023-03-01T10:06:15;2.90;89.60
3418;DHT22;68007;51.312;12.372;2023-03-01T10:08:50;3.00;90.00
3418;DHT22;68007;51.312;12.372;2023-03-01T10:11:22;3.00;89.00
3418;DHT22;68007;51.312;12.372;2023-03-01T10:13:57;3.10;89.30
3418;DHT22;68007;51.312;12.372;2023-03-01T10:16:32;3.20;87.90
3418;DHT22;68007;51.312;12.372;2023-03-01T10:19:04;3.20;87.30
3418;DHT22;68007;51.312;12.372;2023-03-01T10:21:36;3.30;87.00
3418;DHT22;68007;51.312;12.372;2023-03-01T10:24:10;3.30;86.90
3418;DHT22;68007;51.312;12.372;2023-03-01T10:26:48;3.40;87.20
3418;DHT22;68007;51.312;12.372;2023-03-01T10:29:19;3.40;86.70
3418;DHT22;68007;51.312;12.372;2023-03-01T10:31:52;3.50;85.90
3418;DHT22;68007;51.312;12.372;2023-03-01T10:34:27;3.60;84.00
3418;DHT22;68007;51.312;12.372;2023-03-01T10:36:57;3.70;84.60
3418;DHT22;68007;51.312;12.372;2023-03-01T10:39:26;3.70;83.60
3418;DHT22;68007;51.312;12.372;2023-03-01T10:42:02;3.70;84.10
3418;DHT22;68007;51.312;12.372;2023-03-01T10:44:43;3.80;82.70
3418;DHT22;68007;51.312;12.372;2023-03-01T10:47:15;3.90;82.70
3418;DHT22;68007;51.312;12.372;2023-03-01T10:49:54;4.00;82.30
3418;DHT22;68007;51.312;12.372;2023-03-01T10:52:24;4.10;81.60
3418;DHT22;68007;51.312;12.372;2023-03-01T10:54:54;4.20;80.60
3418;DHT22;68007;51.312;12.372;2023-03-01T10:57:29;4.30;81.00
3418;DHT22;68007;51.312;12.372;2023-03-01T11:00:13;4.40;80.10
3418;DHT22;68007;51.312;12.372;2023-03-01T11:02:42;4.50;77.90
3418;DHT22;68007;51.312;12.372;2023-03-01T11:05:20;4.50;76.80
3418;DHT22;68007;51.312;12.372;2023-03-01T11:07:48;4.50;78.10
3418;DHT22;68007;51.312;12.372;2023-03-01T11:10:18;4.60;77.90
3418;DHT22;68007;51.312;12.372;2023-03-01T11:12:46;4.60;77.20
3418;DHT22;68007;51.312;12.372;2023-03-01T11:15:25;4.70;77.70
3418;DHT22;68007;51.312;12.372;2023-03-01T11:17:54;4.80;78.70
3418;DHT22;68007;51.312;12.372;2023-03-01T11:20:30;4.90;77.90
3418;DHT22;68007;51.312;12.372;2023-03-01T11:23:02;5.00;78.30
3418;DHT22;68007;51.312;12.372;2023-03-01T11:25:34;5.20;77.80
3418;DHT22;68007;51.312;12.372;2023-03-01T11:28:05;5.20;78.30
3418;DHT22;68007;51.312;12.372;2023-03-01T11:30:38;5.30;79.10
3418;DHT22;68007;51.312;12.372;2023-03-01T11:33:15;5.40;78.90
3418;DHT22;68007;51.312;12.372;2023-03-01T11:35:49;5.50;78.00
3418;DHT22;68007;51.312;12.372;2023-03-01T11:38:22;5.50;79.40
3418;DHT22;68007;51.312;12.372;2023-03-01T11:40:54;5.60;80.00
3418;DHT22;68007;51.312;12.372;2023-03-01T11:43:32;5.80;80.50
3418;DHT22;68007;51.312;12.372;2023-03-01T11:49:31;6.10;79.10
3418;DHT22;68007;51.312;12.372;2023-03-01T11:52:09;6.40;77.90
3418;DHT22;68007;51.312;12.372;2023-03-01T11:54:53;6.50;76.50
3418;DHT22;68007;51.312;12.372;2023-03-01T11:57:41;6.70;76.70
3418;DHT22;68007;51.312;12.372;2023-03-01T12:00:26;7.00;75.50
3418;DHT22;68007;51.312;12.372;2023-03-01T12:03:30;7.30;75.10
3418;DHT22;68007;51.312;12.372;2023-03-01T12:06:06;7.50;74.20
3418;DHT22;68007;51.312;12.372;2023-03-01T12:08:41;7.90;73.30
3418;DHT22;68007;51.312;12.372;2023-03-01T12:11:22;8.10;72.90
3418;DHT22;68007;51.312;12.372;2023-03-01T12:14:10;8.30;72.10
3418;DHT22;68007;51.312;12.372;2023-03-01T12:16:58;8.50;71.80
3418;DHT22;68007;51.312;12.372;2023-03-01T12:19:44;8.70;71.30
3418;DHT22;68007;51.312;12.372;2023-03-01T12:22:25;9.00;70.80
3418;DHT22;68007;51.312;12.372;2023-03-01T12:28:03;9.40;69.50
3418;DHT22;68007;51.312;12.372;2023-03-01T12:30:42;9.60;69.70
3418;DHT22;68007;51.312;12.372;2023-03-01T12:33:21;9.70;68.90
3418;DHT22;68007;51.312;12.372;2023-03-01T12:36:25;9.80;68.80
3418;DHT22;68007;51.312;12.372;2023-03-01T12:39:06;9.90;68.20
3418;DHT22;68007;51.312;12.372;2023-03-01T12:41:47;10.10;68.20
3418;DHT22;68007;51.312;12.372;2023-03-01T12:44:39;10.20;67.70
3418;DHT22;68007;51.312;12.372;2023-03-01T12:47:25;10.40;67.40
3418;DHT22;68007;51.312;12.372;2023-03-01T12:49:56;10.50;66.60
3418;DHT22;68007;51.312;12.372;2023-03-01T12:52:32;10.70;65.90
3418;DHT22;68007;51.312;12.372;2023-03-01T12:55:03;10.80;65.50
3418;DHT22;68007;51.312;12.372;2023-03-01T12:57:40;11.00;65.60
3418;DHT22;68007;51.312;12.372;2023-03-01T13:00:22;11.10;65.30
3418;DHT22;68007;51.312;12.372;2023-03-01T13:02:59;11.10;65.00
3418;DHT22;68007;51.312;12.372;2023-03-01T13:05:36;11.20;62.70
3418;DHT22;68007;51.312;12.372;2023-03-01T13:08:14;11.30;63.40
3418;DHT22;68007;51.312;12.372;2023-03-01T13:10:46;11.30;64.30
3418;DHT22;68007;51.312;12.372;2023-03-01T13:13:21;11.30;63.20
3418;DHT22;68007;51.312;12.372;2023-03-01T13:15:50;11.30;62.70
3418;DHT22;68007;51.312;12.372;2023-03-01T13:18:29;11.40;63.20
3418;DHT22;68007;51.312;12.372;2023-03-01T13:21:00;11.50;63.20
3418;DHT22;68007;51.312;12.372;2023-03-01T13:23:34;11.40;62.50
3418;DHT22;68007;51.312;12.372;2023-03-01T13:26:09;11.40;63.70
3418;DHT22;68007;51.312;12.372;2023-03-01T13:28:51;11.50;63.60
3418;DHT22;68007;51.312;12.372;2023-03-01T13:34:47;11.50;62.20
3418;DHT22;68007;51.312;12.372;2023-03-01T13:37:33;11.60;64.00
3418;DHT22;68007;51.312;12.372;2023-03-01T13:42:49;11.70;62.90
3418;DHT22;68007;51.312;12.372;2023-03-01T13:45:21;11.60;62.40
3418;DHT22;68007;51.312;12.372;2023-03-01T13:47:54;11.60;62.90
3418;DHT22;68007;51.312;12.372;2023-03-01T13:50:25;11.60;62.50
3418;DHT22;68007;51.312;12.372;2023-03-01T13:52:56;11.60;62.30
3418;DHT22;68007;51.312;12.372;2023-03-01T13:55:30;11.60;61.60
3418;DHT22;68007;51.312;12.372;2023-03-01T13:58:04;11.60;52.00
3418;DHT22;68007;51.312;12.372;2023-03-01T14:00:35;11.60;59.30
3418;DHT22;68007;51.312;12.372;2023-03-01T14:03:08;11.60;60.10
3418;DHT22;68007;51.312;12.372;2023-03-01T14:05:38;11.50;60.90
3418;DHT22;68007;51.312;12.372;2023-03-01T14:08:19;11.50;62.10
3418;DHT22;68007;51.312;12.372;2023-03-01T14:14:03;11.40;60.50
3418;DHT22;68007;51.312;12.372;2023-03-01T14:16:44;11.40;59.40
3418;DHT22;68007;51.312;12.372;2023-03-01T14:19:17;11.40;59.10
3418;DHT22;68007;51.312;12.372;2023-03-01T14:21:46;11.40;58.10
3418;DHT22;68007;51.312;12.372;2023-03-01T14:24:21;11.50;58.10
3418;DHT22;68007;51.312;12.372;2023-03-01T14:26:50;11.50;58.60
3418;DHT22;68007;51.312;12.372;2023-03-01T14:29:25;11.50;59.00
3418;DHT22;68007;51.312;12.372;2023-03-01T14:31:54;11.50;57.20
3418;DHT22;68007;51.312;12.372;2023-03-01T14:34:23;11.50;58.10
3418;DHT22;68007;51.312;12.372;2023-03-01T14:36:51;11.50;56.70
3418;DHT22;68007;51.312;12.372;2023-03-01T14:39:24;11.50;59.20
3418;DHT22;68007;51.312;12.372;2023-03-01T14:41:52;11.60;54.40
3418;DHT22;68007;51.312;12.372;2023-03-01T14:44:22;11.50;55.30
3418;DHT22;68007;51.312;12.372;2023-03-01T14:46:54;11.50;55.30
3418;DHT22;68007;51.312;12.372;2023-03-01T14:49:25;11.50;54.70
3418;DHT22;68007;51.312;12.372;2023-03-01T14:51:59;11.50;55.90
3418;DHT22;68007;51.312;12.372;2023-03-01T14:54:35;11.50;56.20
3418;DHT22;68007;51.312;12.372;2023-03-01T14:57:04;11.50;54.80
3418;DHT22;68007;51.312;12.372;2023-03-01T14:59:33;11.40;54.40
3418;DHT22;68007;51.312;12.372;2023-03-01T15:02:02;11.40;56.00
3418;DHT22;68007;51.312;12.372;2023-03-01T15:04:30;11.40;54.40
3418;DHT22;68007;51.312;12.372;2023-03-01T15:06:59;11.30;55.00
3418;DHT22;68007;51.312;12.372;2023-03-01T15:09:32;11.30;49.70
3418;DHT22;68007;51.312;12.372;2023-03-01T15:12:01;11.30;53.80
3418;DHT22;68007;51.312;12.372;2023-03-01T15:14:48;11.30;55.80
3418;DHT22;68007;51.312;12.372;2023-03-01T15:17:28;11.20;53.90
3418;DHT22;68007;51.312;12.372;2023-03-01T15:19:58;11.20;53.50
3418;DHT22;68007;51.312;12.372;2023-03-01T15:22:26;11.20;53.30
3418;DHT22;68007;51.312;12.372;2023-03-01T15:24:54;11.10;52.50
3418;DHT22;68007;51.312;12.372;2023-03-01T15:27:24;11.20;54.50
3418;DHT22;68007;51.312;12.372;2023-03-01T15:29:54;11.20;53.30
3418;DHT22;68007;51.312;12.372;2023-03-01T15:32:28;11.20;53.60
3418;DHT22;68007;51.312;12.372;2023-03-01T15:34:56;11.20;54.20
3418;DHT22;68007;51.312;12.372;2023-03-01T15:37:40;11.10;53.10
3418;DHT22;68007;51.312;12.372;2023-03-01T15:40:20;11.10;54.00
3418;DHT22;68007;51.312;12.372;2023-03-01T15:42:50;11.10;54.40
3418;DHT22;68007;51.312;12.372;2023-03-01T15:45:23;11.10;53.50
3418;DHT22;68007;51.312;12.372;2023-03-01T15:47:55;11.10;53.80
3418;DHT22;68007;51.312;12.372;2023-03-01T15:50:26;11.00;56.70
3418;DHT22;68007;51.312;12.372;2023-03-01T15:52:55;11.00;53.80
3418;DHT22;68007;51.312;12.372;2023-03-01T15:55:25;11.00;55.30
3418;DHT22;68007;51.312;12.372;2023-03-01T15:57:59;11.00;54.90
3418;DHT22;68007;51.312;12.372;2023-03-01T16:00:28;10.90;54.40
3418;DHT22;68007;51.312;12.372;2023-03-01T16:02:57;10.90;54.40
3418;DHT22;68007;51.312;12.372;2023-03-01T16:05:27;10.90;55.10
3418;DHT22;68007;51.312;12.372;2023-03-01T16:07:54;10.80;55.20
3418;DHT22;68007;51.312;12.372;2023-03-01T16:10:23;10.70;55.00
3418;DHT22;68007;51.312;12.372;2023-03-01T16:12:51;10.60;54.00
3418;DHT22;68007;51.312;12.372;2023-03-01T16:15:21;10.60;54.70
3418;DHT22;68007;51.312;12.372;2023-03-01T16:17:49;10.50;55.00
3418;DHT22;68007;51.312;12.372;2023-03-01T16:20:18;10.40;54.40
3418;DHT22;68007;51.312;12.372;2023-03-01T16:22:46;10.40;56.50